Time;durP1;ratioP1;P1;durP2;ratioP2;P2;SDS_P1;SDS_P2;PMS_P1;PMS_P2;Temp;Humidity;BMP_temperature;BMP_pressure;BME280_temperature;BME280_humidity;BME280_pressure;Samples;Min_cycle;Max_cycle;Signal;HPM_P1;HPM_P2
2023/01/26 00:01:31;;;;;;;103.47;31.33;;;0.40;99.90;;;-1.26;100.00;102013.13;4876547;28;20049;-79
2023/01/26 00:03:57;;;;;;;99.40;30.00;;;0.40;99.90;;;-1.25;100.00;102020.94;4890600;28;20035;-79
2023/01/26 00:06:24;;;;;;;116.93;31.38;;;0.50;99.90;;;-1.27;100.00;102021.75;4931332;28;20035;-77
2023/01/26 00:08:53;;;;;;;116.60;32.03;;;0.40;99.90;;;-1.31;100.00;102022.50;4904664;28;20570;-79
2023/01/26 00:11:23;;;;;;;108.55;31.23;;;0.40;99.90;;;-1.30;100.00;102013.91;4901939;28;20053;-78
2023/01/26 00:13:53;;;;;;;129.55;31.55;;;0.40;99.90;;;-1.40;100.00;102010.25;4960946;28;20106;-79
2023/01/26 00:16:19;;;;;;;156.95;32.38;;;0.40;99.90;;;-1.45;100.00;102001.50;4929876;28;20484;-79
2023/01/26 00:18:47;;;;;;;152.25;32.80;;;0.40;99.90;;;-1.49;100.00;102010.91;4954551;28;20027;-78
2023/01/26 00:21:19;;;;;;;141.32;33.53;;;0.30;99.90;;;-1.52;100.00;102004.78;4897586;28;20139;-79
2023/01/26 00:23:46;;;;;;;137.88;32.30;;;;;;;-1.54;100.00;102002.16;4892825;28;20032;-78
2023/01/26 00:26:20;;;;;;;156.93;31.88;;;0.30;99.90;;;-1.54;100.00;102004.75;4949063;28;20057;-79
2023/01/26 00:28:47;;;;;;;142.90;33.28;;;;;;;-1.54;100.00;101985.78;4914829;28;21460;-79
2023/01/26 00:31:19;;;;;;;150.25;33.67;;;0.20;99.90;;;-1.55;100.00;101979.75;4952270;28;20092;-78
2023/01/26 00:33:45;;;;;;;159.80;34.65;;;0.20;99.90;;;-1.51;100.00;101984.16;4926946;28;20125;-79
2023/01/26 00:36:12;;;;;;;161.00;31.83;;;0.20;99.90;;;-1.49;100.00;101979.00;4924819;28;20053;-79
2023/01/26 00:38:39;;;;;;;155.60;33.78;;;0.20;99.90;;;-1.47;100.00;101986.00;4937588;28;20047;-78
2023/01/26 00:41:04;;;;;;;173.73;33.05;;;0.30;99.90;;;-1.41;100.00;101987.81;4944537;28;20049;-77
2023/01/26 00:43:31;;;;;;;164.90;32.97;;;0.20;99.90;;;-1.54;100.00;101981.50;4924345;28;20023;-78
2023/01/26 00:45:59;;;;;;;172.02;33.10;;;0.20;99.90;;;-1.50;100.00;101985.91;4954699;28;20515;-78
2023/01/26 00:48:24;;;;;;;212.88;34.80;;;0.20;99.90;;;-1.49;100.00;101989.34;4867177;28;20055;-77
2023/01/26 00:50:51;;;;;;;203.18;35.88;;;0.30;99.90;;;-1.52;100.00;101995.31;4913043;28;20380;-78
2023/01/26 00:53:17;;;;;;;187.30;32.08;;;1.10;99.90;;;-1.54;100.00;101986.66;4901865;28;20066;-77
2023/01/26 00:55:43;;;;;;;160.98;31.90;;;0.20;99.90;;;-1.59;100.00;101987.41;4960512;28;20518;-78
2023/01/26 00:58:09;;;;;;;154.25;30.50;;;0.20;99.90;;;-1.56;100.00;101985.75;4931665;28;20034;-78
2023/01/26 01:00:40;;;;;;;199.32;34.00;;;0.20;99.90;;;-1.59;100.00;101980.53;4948233;28;20130;-78
2023/01/26 01:03:06;;;;;;;238.13;36.80;;;0.20;99.90;;;-1.51;100.00;101985.84;4936569;28;20478;-78
2023/01/26 01:05:33;;;;;;;229.82;33.00;;;0.20;99.90;;;-1.52;100.00;101987.56;4942413;28;20055;-78
2023/01/26 01:07:59;;;;;;;219.65;33.88;;;0.20;99.90;;;-1.53;100.00;101978.09;4963031;28;20076;-77
2023/01/26 01:10:32;;;;;;;220.90;33.05;;;0.20;99.90;;;-1.57;100.00;101986.59;4946738;28;20123;-77
2023/01/26 01:12:58;;;;;;;194.68;32.08;;;0.20;99.90;;;-1.60;100.00;101968.44;4948728;28;20031;-78
2023/01/26 01:15:24;;;;;;;202.95;32.47;;;0.20;99.90;;;-1.54;100.00;101965.13;4948849;28;20921;-78
2023/01/26 01:17:50;;;;;;;232.10;32.92;;;0.20;99.90;;;-1.59;100.00;101954.69;4955179;28;20097;-78
2023/01/26 01:20:17;;;;;;;193.65;32.15;;;0.20;99.90;;;-1.54;100.00;101947.91;4955157;28;20117;-77
2023/01/26 01:22:45;;;;;;;201.10;32.90;;;0.20;99.90;;;-1.52;100.00;101938.50;4947489;28;20080;-78
2023/01/26 01:25:11;;;;;;;190.80;31.35;;;0.20;99.90;;;-1.54;100.00;101940.16;4922814;28;20064;-78
2023/01/26 01:27:37;;;;;;;182.55;31.30;;;0.20;99.90;;;-1.50;100.00;101941.13;4940616;28;20059;-78
2023/01/26 01:30:06;;;;;;;180.13;29.00;;;0.20;99.90;;;-1.47;100.00;101939.47;4933047;28;20036;-78
2023/01/26 01:32:39;;;;;;;165.15;29.70;;;0.30;99.90;;;-1.46;100.00;101941.22;4944444;28;20035;-78
2023/01/26 01:35:06;;;;;;;175.15;29.77;;;0.20;99.90;;;-1.51;100.00;101949.69;4921326;28;20037;-77
2023/01/26 01:37:32;;;;;;;156.50;27.63;;;0.30;99.90;;;-1.48;100.00;101939.44;4933182;28;20066;-78
2023/01/26 01:39:58;;;;;;;160.95;27.98;;;0.30;99.90;;;-1.45;100.00;101936.91;4904258;28;20042;-78
2023/01/26 01:42:25;;;;;;;143.68;27.27;;;0.30;99.90;;;-1.42;100.00;101933.56;4910018;28;20044;-77
2023/01/26 01:45:24;;;;;;;137.70;26.85;;;0.30;99.90;;;-1.46;100.00;101917.97;4933458;28;20464;-78
2023/01/26 01:47:55;;;;;;;129.70;23.90;;;0.30;99.90;;;-1.47;100.00;101917.91;4952073;28;20038;-78
2023/01/26 01:50:22;;;;;;;125.30;24.40;;;0.30;99.90;;;-1.45;100.00;101919.72;4926107;28;20046;-78
2023/01/26 01:52:49;;;;;;;124.07;24.38;;;0.30;99.90;;;-1.53;100.00;101912.66;4918966;28;20034;-78
2023/01/26 01:55:16;;;;;;;124.65;23.75;;;0.20;99.90;;;-1.62;100.00;101910.72;4911263;28;20128;-77
2023/01/26 01:57:57;;;;;;;130.02;23.17;;;0.20;99.90;;;-1.59;100.00;101903.03;4938967;28;20034;-78
2023/01/26 02:00:24;;;;;;;135.10;24.90;;;0.20;99.90;;;-1.56;100.00;101908.25;4966945;28;20060;-78
2023/01/26 02:03:10;;;;;;;112.47;20.85;;;0.20;99.90;;;-1.61;100.00;101906.44;4945308;28;20034;-78
2023/01/26 02:05:56;;;;;;;100.90;21.42;;;0.10;99.90;;;-1.58;100.00;101896.16;4976144;28;20041;-77
2023/01/26 02:08:49;;;;;;;111.07;22.40;;;0.20;99.90;;;-1.56;100.00;101890.19;4950327;28;20049;-78
2023/01/26 02:11:39;;;;;;;93.85;20.98;;;0.20;99.90;;;-1.55;100.00;101884.19;4951730;28;20587;-78
2023/01/26 02:14:09;;;;;;;115.55;21.95;;;0.10;99.90;;;-1.60;100.00;101870.28;4940531;28;20038;-77
2023/01/26 02:16:44;;;;;;;112.03;22.05;;;0.10;99.90;;;-1.56;100.00;101874.69;4945978;28;20420;-77
2023/01/26 02:19:39;;;;;;;125.35;22.95;;;0.20;99.90;;;-1.51;100.00;101865.34;4941660;28;20038;-77
2023/01/26 02:22:31;;;;;;;100.53;20.95;;;0.20;99.90;;;-1.51;100.00;101864.44;4943972;28;20027;-78
2023/01/26 02:25:03;;;;;;;100.90;22.15;;;0.20;99.90;;;-1.47;100.00;101863.66;4958673;28;20041;-77
2023/01/26 02:27:29;;;;;;;98.10;21.65;;;0.20;99.90;;;-1.47;100.00;101858.50;4940532;28;20487;-77
2023/01/26 02:29:58;;;;;;;98.65;19.42;;;0.20;99.90;;;-1.46;100.00;101840.47;4939792;28;20033;-77
2023/01/26 02:32:24;;;;;;;85.07;19.67;;;0.20;99.90;;;-1.49;100.00;101842.09;4931370;28;20101;-78
2023/01/26 02:34:56;;;;;;;101.70;19.85;;;0.20;99.90;;;-1.51;100.00;101846.34;4972393;28;20667;-78
2023/01/26 02:37:32;;;;;;;85.18;17.42;;;0.20;99.90;;;-1.60;100.00;101846.16;4944521;28;20026;-77
2023/01/26 02:40:37;;;;;;;71.03;16.58;;;0.10;99.90;;;-1.79;100.00;101844.91;4957454;28;20029;-77
2023/01/26 02:43:03;;;;;;;67.10;16.02;;;0.00;99.90;;;-1.79;100.00;101847.47;4979596;28;20108;-78
2023/01/26 02:45:30;;;;;;;63.17;15.23;;;0.00;99.90;;;-1.80;100.00;101843.16;4952746;28;20078;-77
2023/01/26 02:47:58;;;;;;;27.30;8.30;;;-0.10;99.90;;;-2.02;100.00;101844.41;4948783;28;20122;-78
2023/01/26 02:50:24;;;;;;;48.20;13.23;;;-0.20;99.90;;;-2.00;100.00;101843.59;4954218;28;20097;-78
2023/01/26 02:52:53;;;;;;;58.53;14.80;;;-0.10;99.90;;;-1.91;100.00;101845.50;4961313;28;20034;-77
2023/01/26 02:55:21;;;;;;;62.85;15.95;;;-0.10;99.90;;;-1.83;100.00;101843.97;4938309;28;20030;-77
2023/01/26 02:57:48;;;;;;;76.07;16.35;;;0.00;99.90;;;-1.78;100.00;101850.09;4936791;28;20049;-77
2023/01/26 03:00:35;;;;;;;74.90;15.93;;;0.00;99.90;;;-1.75;100.00;101841.53;4952308;28;21295;-78
2023/01/26 03:03:14;;;;;;;70.65;16.13;;;0.00;99.90;;;-1.73;100.00;101834.72;4949336;28;20056;-78
2023/01/26 03:05:41;;;;;;;70.80;16.75;;;0.00;99.90;;;-1.71;100.00;101840.78;4971523;28;20037;-78
2023/01/26 03:08:07;;;;;;;67.93;17.20;;;0.00;99.90;;;-1.68;100.00;101827.94;4947638;28;20041;-78
2023/01/26 03:10:33;;;;;;;72.90;15.60;;;0.00;99.90;;;-1.76;100.00;101824.31;4937108;28;20034;-78
2023/01/26 03:12:59;;;;;;;78.68;16.65;;;0.00;99.90;;;-1.77;100.00;101822.56;4955176;28;20038;-77
2023/01/26 03:29:31;;;;;;;67.72;16.98;;;0.00;99.90;;;-1.79;100.00;101827.72;4970273;28;20053;-77
2023/01/26 03:31:58;;;;;;;60.85;14.30;;;0.00;99.90;;;-1.74;100.00;101830.41;4926204;28;20090;-77
2023/01/26 03:34:24;;;;;;;57.15;14.60;;;0.00;99.90;;;-1.75;100.00;101832.13;4910650;28;20030;-78
2023/01/26 03:36:53;;;;;;;56.47;14.07;;;-0.10;99.90;;;-1.86;100.00;101825.81;4935966;28;20027;-77
2023/01/26 03:56:16;;;;;;;77.40;19.17;;;0.00;99.90;;;-1.78;100.00;101818.25;4969308;28;20046;-77
2023/01/26 03:58:44;;;;;;;76.45;18.52;;;0.00;99.90;;;-1.79;100.00;101819.06;4943161;28;20038;-77
2023/01/26 04:01:17;;;;;;;79.88;18.25;;;0.00;99.90;;;-1.75;100.00;101815.72;4934319;28;20030;-77
2023/01/26 04:09:15;;;;;;;71.43;19.27;;;0.00;99.90;;;-1.76;100.00;101824.31;4939149;28;20079;-77
2023/01/26 04:11:40;;;;;;;86.63;18.65;;;0.00;99.90;;;-1.73;100.00;101824.38;4949037;28;20042;-76
2023/01/26 04:22:33;;;;;;;80.65;20.73;;;0.00;99.90;;;-1.72;100.00;101833.88;4987577;28;20099;-78
2023/01/26 04:24:59;;;;;;;73.20;21.17;;;0.00;99.90;;;-1.66;100.00;101837.47;4927274;28;20073;-76
2023/01/26 04:27:25;;;;;;;83.57;21.23;;;0.00;99.90;;;-1.60;100.00;101838.41;4926524;28;20039;-78
2023/01/26 04:29:50;;;;;;;101.70;20.50;;;0.10;99.90;;;-1.57;100.00;101841.09;4931223;28;20102;-77
2023/01/26 04:32:16;;;;;;;82.63;20.58;;;0.10;99.90;;;-1.53;100.00;101842.91;4963168;28;20034;-76
2023/01/26 04:34:45;;;;;;;79.68;19.80;;;0.20;99.90;;;-1.55;100.00;101844.56;4942099;28;20030;-77
2023/01/26 04:37:11;;;;;;;95.78;21.10;;;0.20;99.90;;;-1.55;100.00;101840.28;4933168;28;20162;-77
2023/01/26 04:39:37;;;;;;;112.05;22.08;;;0.20;99.90;;;-1.56;100.00;101837.66;4914862;28;20093;-78
2023/01/26 04:42:03;;;;;;;97.03;20.83;;;0.20;99.90;;;-1.58;100.00;101823.84;4919251;28;20038;-78
2023/01/26 04:44:29;;;;;;;99.28;21.50;;;0.20;99.90;;;-1.58;100.00;101832.44;4961781;28;20387;-77
2023/01/26 04:46:54;;;;;;;86.63;22.13;;;0.20;99.90;;;-1.59;100.00;101835.03;4940445;28;20129;-77
2023/01/26 04:49:20;;;;;;;100.35;21.40;;;0.20;99.90;;;-1.55;100.00;101842.84;4933247;28;20034;-77
2023/01/26 04:51:51;;;;;;;89.50;20.67;;;0.10;99.90;;;-1.53;100.00;101833.44;4949139;28;20031;-77
2023/01/26 04:54:17;;;;;;;86.57;21.02;;;0.20;99.90;;;-1.52;100.00;101830.00;4904192;28;20035;-77
2023/01/26 04:56:43;;;;;;;76.93;20.40;;;0.20;99.90;;;-1.49;100.00;101824.00;4978749;28;20040;-77
2023/01/26 04:59:09;;;;;;;104.07;21.95;;;;;;;-1.48;100.00;101824.06;4952926;28;20022;-77
2023/01/26 05:01:36;;;;;;;97.20;21.75;;;0.20;99.90;;;-1.47;100.00;101830.09;4952739;28;20510;-77
2023/01/26 05:04:05;;;;;;;83.10;20.00;;;0.20;99.90;;;-1.49;100.00;101831.75;4946979;28;20092;-78
2023/01/26 05:06:31;;;;;;;90.82;20.73;;;0.20;99.90;;;-1.58;100.00;101835.03;4970396;28;20035;-77
2023/01/26 05:08:57;;;;;;;78.03;19.67;;;0.20;99.90;;;-1.60;100.00;101830.69;4956426;28;20045;-77
2023/01/26 05:11:23;;;;;;;93.53;20.27;;;0.10;99.90;;;-1.69;100.00;101826.19;4958525;28;20042;-78
2023/01/26 05:13:49;;;;;;;93.45;20.60;;;0.10;99.90;;;-1.68;100.00;101810.72;4938612;28;20049;-76
2023/01/26 05:16:16;;;;;;;93.80;20.45;;;0.10;99.90;;;-1.64;100.00;101827.19;4947287;28;20161;-77
2023/01/26 05:18:42;;;;;;;92.30;19.60;;;0.10;99.90;;;-1.66;100.00;101811.63;4942480;28;20053;-78
2023/01/26 05:21:11;;;;;;;96.82;20.70;;;0.10;99.90;;;-1.66;100.00;101821.97;4975068;28;20690;-78
2023/01/26 05:23:37;;;;;;;88.43;19.00;;;0.10;99.90;;;-1.63;100.00;101825.47;4938698;28;20114;-78
2023/01/26 05:26:04;;;;;;;77.95;17.77;;;0.10;99.90;;;-1.62;100.00;101822.91;4957499;28;20038;-77
2023/01/26 05:28:29;;;;;;;99.18;19.58;;;0.10;99.90;;;-1.58;100.00;101823.84;4942552;28;20041;-77
2023/01/26 05:30:55;;;;;;;82.10;18.58;;;0.10;99.90;;;-1.57;100.00;101821.28;4972106;28;20522;-77
2023/01/26 05:33:21;;;;;;;85.60;18.23;;;0.50;99.90;;;-1.53;100.00;101829.97;4954297;28;20230;-77
2023/01/26 05:35:55;;;;;;;78.20;17.52;;;0.20;99.90;;;-1.51;100.00;101834.34;4912144;28;20038;-78
2023/01/26 05:38:21;;;;;;;68.38;17.40;;;0.20;99.90;;;-1.50;100.00;101828.31;4904136;28;20041;-77
2023/01/26 05:40:47;;;;;;;88.53;18.42;;;0.20;99.90;;;-1.45;100.00;101831.88;4935820;28;20036;-78
2023/01/26 05:43:13;;;;;;;68.72;16.40;;;0.20;99.90;;;-1.46;100.00;101830.13;4976750;28;20451;-77
2023/01/26 05:45:42;;;;;;;63.30;16.75;;;;;;;-1.46;100.00;101817.22;4928902;28;20052;-78
2023/01/26 05:48:07;;;;;;;60.28;16.70;;;0.30;99.90;;;-1.48;100.00;101821.47;4955658;28;20270;-77
2023/01/26 05:50:33;;;;;;;71.35;18.80;;;0.20;99.90;;;-1.53;100.00;101810.19;4953974;28;20074;-77
2023/01/26 05:53:01;;;;;;;68.57;17.10;;;0.20;99.90;;;-1.50;100.00;101810.22;4949338;28;20403;-77
2023/01/26 05:55:27;;;;;;;64.22;16.45;;;0.20;99.90;;;-1.46;100.00;101813.75;4932900;28;20038;-77
2023/01/26 05:57:53;;;;;;;66.63;15.60;;;0.20;99.90;;;-1.45;100.00;101805.16;4940650;28;20112;-77
2023/01/26 06:00:19;;;;;;;51.55;15.70;;;0.20;99.90;;;-1.46;100.00;101804.28;4934226;28;20122;-78
2023/01/26 06:02:45;;;;;;;55.53;15.90;;;0.20;99.90;;;-1.47;100.00;101799.09;4927870;28;20130;-78
2023/01/26 06:05:14;;;;;;;55.78;15.32;;;0.20;99.90;;;-1.48;100.00;101800.81;4953827;28;20038;-78
2023/01/26 06:07:40;;;;;;;65.90;16.67;;;0.20;99.90;;;-1.48;100.00;101805.97;4957908;28;20034;-78
2023/01/26 06:10:06;;;;;;;66.97;16.33;;;0.20;99.90;;;-1.43;100.00;101808.63;4942638;28;20031;-77
2023/01/26 06:12:34;;;;;;;50.60;14.38;;;0.30;99.90;;;-1.39;100.00;101805.28;4954795;28;20073;-77
2023/01/26 06:15:04;;;;;;;38.63;11.80;;;0.30;99.90;;;-1.34;100.00;101813.13;4934838;28;20112;-77
2023/01/26 06:17:31;;;;;;;40.13;11.77;;;0.30;99.90;;;-1.34;100.00;101810.53;4977122;28;20046;-78
2023/01/26 06:19:57;;;;;;;41.22;11.45;;;0.30;99.90;;;-1.33;100.00;101804.53;4925057;28;20102;-77
2023/01/26 06:22:23;;;;;;;40.95;12.15;;;0.30;99.90;;;-1.34;100.00;101803.69;4932043;28;20038;-77
2023/01/26 06:24:49;;;;;;;44.28;13.68;;;0.30;99.90;;;-1.34;100.00;101803.69;4934117;28;20038;-78
2023/01/26 06:27:18;;;;;;;47.30;13.02;;;0.30;99.90;;;-1.34;100.00;101807.94;4965764;28;20046;-77
2023/01/26 06:29:44;;;;;;;46.05;12.65;;;0.30;99.90;;;-1.36;100.00;101804.47;4974149;28;20050;-78
2023/01/26 06:32:12;;;;;;;44.25;12.50;;;0.30;99.90;;;-1.35;100.00;101816.56;4969395;28;20038;-78
2023/01/26 06:34:38;;;;;;;51.25;13.77;;;0.30;99.90;;;-1.35;100.00;101811.38;4976963;28;20065;-77
2023/01/26 06:37:06;;;;;;;48.38;13.95;;;0.30;99.90;;;-1.35;100.00;101806.22;4939587;28;20034;-77
2023/01/26 06:39:39;;;;;;;46.80;13.65;;;0.30;99.90;;;-1.36;100.00;101813.13;4954947;28;20688;-78
2023/01/26 06:42:07;;;;;;;45.20;12.02;;;0.30;99.90;;;-1.36;100.00;101812.22;4934891;28;20050;-78
2023/01/26 06:44:33;;;;;;;52.08;13.88;;;0.30;99.90;;;-1.39;100.00;101802.69;4938466;28;20034;-78
2023/01/26 06:47:03;;;;;;;41.90;12.75;;;0.30;99.90;;;-1.37;100.00;101803.59;4896529;28;20456;-78
2023/01/26 06:49:29;;;;;;;42.20;12.77;;;0.30;99.90;;;-1.41;100.00;101808.69;4940860;28;20030;-77
2023/01/26 06:52:03;;;;;;;37.40;12.73;;;0.30;99.90;;;-1.41;100.00;101806.97;4945223;28;20177;-77
2023/01/26 06:54:29;;;;;;;38.58;12.77;;;0.30;99.90;;;-1.39;100.00;101815.63;4920902;28;20034;-78
2023/01/26 06:56:57;;;;;;;44.08;12.55;;;0.30;99.90;;;-1.37;100.00;101811.34;4979524;28;20501;-78
2023/01/26 06:59:23;;;;;;;34.88;12.00;;;0.30;99.90;;;-1.35;100.00;101812.25;4952756;28;20133;-77
2023/01/26 07:01:49;;;;;;;43.67;12.40;;;0.30;99.90;;;-1.36;100.00;101809.63;4955244;28;20056;-77
2023/01/26 07:04:15;;;;;;;41.30;12.57;;;0.30;99.90;;;-1.35;100.00;101817.41;4960452;28;20042;-78
2023/01/26 07:06:42;;;;;;;40.72;11.73;;;0.30;99.90;;;-1.39;100.00;101825.94;4929166;28;20054;-77
2023/01/26 07:09:11;;;;;;;38.08;12.13;;;0.30;99.90;;;-1.38;100.00;101816.47;4951872;28;20321;-77
2023/01/26 07:11:37;;;;;;;43.47;13.60;;;0.30;99.90;;;-1.36;100.00;101815.69;4941206;28;20038;-76
2023/01/26 07:14:02;;;;;;;38.85;12.02;;;0.30;99.90;;;-1.30;100.00;101812.34;4938118;28;20033;-77
2023/01/26 07:16:28;;;;;;;33.92;11.65;;;0.40;99.90;;;-1.27;100.00;101821.03;4951397;28;20039;-77
2023/01/26 07:18:54;;;;;;;33.65;11.52;;;0.40;99.90;;;-1.21;100.00;101830.59;4954406;28;20504;-77
2023/01/26 07:21:21;;;;;;;29.48;10.65;;;0.40;99.90;;;-1.19;100.00;101828.06;4945684;28;20042;-78
2023/01/26 07:23:50;;;;;;;38.75;12.75;;;0.40;99.90;;;-1.16;100.00;101834.16;4944787;28;20047;-77
2023/01/26 07:26:19;;;;;;;31.73;10.45;;;0.40;99.90;;;-1.19;100.00;101840.97;4934829;28;20078;-77
2023/01/26 07:28:44;;;;;;;38.05;11.98;;;0.50;99.90;;;-1.19;100.00;101835.81;4940404;28;20035;-78
2023/01/26 07:31:11;;;;;;;30.20;9.73;;;0.40;99.90;;;-1.19;100.00;101841.84;4929027;28;20042;-77
2023/01/26 07:33:37;;;;;;;25.33;7.43;;;0.40;99.90;;;-1.33;100.00;101833.84;4961913;28;20102;-77
2023/01/26 07:36:03;;;;;;;27.05;8.07;;;0.30;99.90;;;-1.35;100.00;101829.47;4942019;28;20047;-78
2023/01/26 07:38:33;;;;;;;23.75;9.07;;;0.40;99.90;;;-1.30;100.00;101823.53;4941670;28;20052;-78
2023/01/26 07:41:04;;;;;;;26.95;9.05;;;0.40;99.90;;;-1.22;100.00;101828.88;4952747;28;20042;-78
2023/01/26 07:43:35;;;;;;;26.52;8.02;;;0.40;99.90;;;-1.18;100.00;101833.25;4947967;28;20039;-78
2023/01/26 07:46:04;;;;;;;26.85;8.52;;;0.50;99.90;;;-1.11;100.00;101842.00;4947069;28;20101;-77
2023/01/26 07:48:31;;;;;;;27.95;8.02;;;0.50;99.90;;;-1.07;100.00;101844.69;4933729;28;20047;-77
2023/01/26 07:51:05;;;;;;;26.70;7.63;;;0.50;99.90;;;-1.14;100.00;101841.97;4927965;28;20086;-76
2023/01/26 07:53:36;;;;;;;22.25;8.23;;;0.50;99.90;;;-1.10;100.00;101838.56;4936478;28;20107;-77
2023/01/26 07:56:14;;;;;;;28.33;9.27;;;0.60;99.90;;;-1.05;100.00;101821.44;4943954;28;20043;-77
2023/01/26 07:58:41;;;;;;;29.88;10.18;;;0.60;99.90;;;-1.01;100.00;101832.72;4925794;28;20040;-77
2023/01/26 08:01:18;;;;;;;34.10;11.25;;;0.60;99.90;;;-0.96;100.00;101831.94;4945038;28;20038;-78
2023/01/26 08:03:44;;;;;;;27.30;10.40;;;0.60;99.90;;;-0.92;100.00;101840.66;4924165;28;20043;-78
2023/01/26 08:06:11;;;;;;;35.45;11.85;;;0.70;99.90;;;-0.85;100.00;101834.72;4895972;28;20697;-77
2023/01/26 08:08:43;;;;;;;31.75;10.98;;;0.70;99.90;;;-0.80;100.00;101833.09;4912837;28;20067;-77
2023/01/26 08:11:10;;;;;;;39.33;11.25;;;0.80;99.90;;;-0.77;100.00;101833.16;4943050;28;20046;-78
2023/01/26 08:13:37;;;;;;;34.53;10.23;;;0.80;99.90;;;-0.79;100.00;101829.69;4959748;28;20091;-77
2023/01/26 08:16:09;;;;;;;32.35;10.57;;;0.80;99.90;;;-0.76;100.00;101828.84;4968766;28;20038;-78
2023/01/26 08:18:35;;;;;;;31.92;9.90;;;0.90;99.90;;;-0.70;100.00;101847.06;4919716;28;20041;-78
2023/01/26 08:21:01;;;;;;;33.58;10.98;;;0.90;99.90;;;-0.72;100.00;101835.81;4978516;28;20834;-78
2023/01/26 08:23:27;;;;;;;37.83;11.15;;;0.90;99.90;;;-0.71;100.00;101835.88;4940851;28;20046;-77
2023/01/26 08:25:53;;;;;;;40.53;10.90;;;0.90;99.90;;;-0.77;100.00;101827.13;4943617;28;20134;-78
2023/01/26 08:28:18;;;;;;;35.75;11.27;;;0.90;99.90;;;-0.81;100.00;101820.16;4927849;28;20038;-77
2023/01/26 08:30:47;;;;;;;33.40;11.70;;;0.90;99.90;;;-0.83;100.00;101822.69;4929592;28;20041;-78
2023/01/26 08:33:12;;;;;;;34.38;11.40;;;0.90;99.90;;;-0.79;100.00;101824.50;4940276;28;20061;-77
2023/01/26 08:35:38;;;;;;;39.20;10.93;;;;;;;-0.75;100.00;101822.84;4967136;28;20483;-78
2023/01/26 08:38:05;;;;;;;35.85;11.40;;;0.90;99.90;;;-0.73;100.00;101829.78;4950891;28;20030;-77
2023/01/26 08:40:30;;;;;;;30.80;10.32;;;0.90;99.90;;;-0.69;100.00;101830.69;4942576;28;20059;-77
2023/01/26 08:43:07;;;;;;;42.53;11.82;;;0.90;99.90;;;-0.65;100.00;101835.97;4954303;28;20045;-77
2023/01/26 08:45:33;;;;;;;39.67;11.32;;;1.00;99.90;;;-0.62;100.00;101828.25;4936967;28;21387;-78
2023/01/26 08:47:59;;;;;;;37.28;12.07;;;1.00;99.90;;;-0.54;100.00;101840.44;4939758;28;20125;-77
2023/01/26 08:50:25;;;;;;;33.92;12.35;;;1.10;99.90;;;-0.43;100.00;101839.78;4938512;28;20043;-78
2023/01/26 08:52:51;;;;;;;28.83;10.52;;;1.10;99.90;;;-0.34;100.00;101844.25;4912217;28;20046;-77
2023/01/26 08:55:21;;;;;;;25.70;9.57;;;1.20;99.90;;;-0.26;100.00;101842.66;4934674;28;20031;-78
2023/01/26 08:57:53;;;;;;;24.25;9.73;;;1.30;99.90;;;-0.21;99.70;101841.00;4928339;28;20031;-78
2023/01/26 09:00:21;;;;;;;25.80;9.73;;;1.30;99.90;;;-0.09;99.26;101847.19;4964821;28;20046;-77
2023/01/26 09:02:50;;;;;;;21.83;9.43;;;1.40;99.90;;;-0.01;99.00;101850.78;4979325;28;20590;-77
2023/01/26 09:05:18;;;;;;;23.05;9.13;;;1.50;99.90;;;0.07;98.46;101848.31;4953287;28;20062;-78
2023/01/26 09:07:44;;;;;;;19.80;9.40;;;1.50;99.90;;;-0.04;98.07;101854.19;4968243;28;20027;-78
2023/01/26 09:10:11;;;;;;;26.10;9.27;;;1.50;99.90;;;-0.09;97.49;101845.47;4973098;28;20094;-77
2023/01/26 09:12:41;;;;;;;28.80;10.63;;;1.50;99.90;;;-0.07;97.32;101845.50;4915497;28;20033;-77
2023/01/26 09:15:09;;;;;;;24.50;10.40;;;1.50;99.90;;;-0.09;97.12;101842.03;4958298;28;20039;-77
2023/01/26 09:17:36;;;;;;;30.27;10.50;;;1.50;99.90;;;-0.04;96.74;101838.66;4955338;28;20038;-78
2023/01/26 09:20:09;;;;;;;26.92;11.20;;;1.50;99.90;;;-0.05;96.49;101846.41;4917711;28;20034;-78
2023/01/26 09:22:38;;;;;;;31.23;11.57;;;1.60;99.90;;;-0.08;97.05;101844.66;4941207;28;20116;-78
2023/01/26 09:25:08;;;;;;;26.88;10.95;;;1.50;99.90;;;-0.07;96.74;101845.50;4994434;28;20033;-77
2023/01/26 09:27:37;;;;;;;30.52;11.82;;;1.50;99.90;;;-0.03;96.82;101842.13;5002197;28;20048;-77
2023/01/26 09:30:05;;;;;;;32.30;11.55;;;1.50;99.90;;;-0.12;96.67;101840.25;4969245;28;20051;-77
2023/01/26 09:32:35;;;;;;;28.17;11.10;;;1.50;99.90;;;-0.09;97.02;101837.72;4936160;28;20066;-78
2023/01/26 09:35:01;;;;;;;30.50;11.15;;;1.50;99.90;;;-0.04;97.28;101840.41;4936239;28;20035;-77
2023/01/26 09:37:33;;;;;;;31.50;11.80;;;1.60;99.90;;;-0.02;97.01;101841.28;4926463;28;20041;-78
2023/01/26 09:40:15;;;;;;;29.88;11.10;;;1.50;99.90;;;0.01;97.02;101835.28;4956905;28;20057;-78
2023/01/26 09:43:36;;;;;;;30.10;11.25;;;1.50;99.90;;;-0.12;97.33;101834.22;4962785;28;20039;-77
2023/01/26 09:46:13;;;;;;;29.17;11.10;;;1.50;99.90;;;-0.14;96.96;101833.31;4969623;28;20061;-77
2023/01/26 09:49:30;;;;;;;31.13;10.70;;;1.50;99.90;;;-0.13;97.12;101828.19;4994456;28;20552;-77
2023/01/26 09:52:28;;;;;;;26.35;10.25;;;1.50;99.90;;;-0.09;97.38;101836.84;4987679;28;20077;-78
2023/01/26 09:54:58;;;;;;;31.15;11.70;;;1.50;99.90;;;-0.13;97.67;101837.63;4955594;28;20039;-77
2023/01/26 09:57:54;;;;;;;28.30;10.82;;;1.50;99.90;;;-0.12;97.15;101829.03;4960623;28;20076;-77
2023/01/26 10:00:47;;;;;;;30.88;10.70;;;1.50;99.90;;;-0.09;97.49;101835.13;4926602;28;20053;-78
2023/01/26 10:03:47;;;;;;;31.75;12.15;;;1.50;99.90;;;-0.01;97.54;101833.53;4944531;28;20050;-77
2023/01/26 10:06:30;;;;;;;31.52;12.98;;;1.60;99.90;;;0.07;97.65;101838.81;4968361;28;20046;-78
2023/01/26 10:09:20;;;;;;;34.20;12.80;;;1.60;99.90;;;0.12;97.62;101831.97;4941776;28;20195;-77
2023/01/26 10:11:57;;;;;;;32.17;13.00;;;;;;;0.14;98.26;101829.41;4970214;28;20093;-78
2023/01/26 10:14:57;;;;;;;33.72;13.57;;;1.70;99.90;;;0.21;97.42;101828.63;4976571;28;20139;-78
2023/01/26 10:17:47;;;;;;;40.42;13.55;;;1.70;99.90;;;0.27;97.75;101823.56;4939563;28;21004;-78
2023/01/26 10:20:43;;;;;;;39.35;13.55;;;1.70;99.90;;;0.30;97.48;101825.31;4962836;28;20041;-77
2023/01/26 10:23:22;;;;;;;29.83;13.37;;;1.80;99.90;;;0.28;97.68;101812.34;4958820;28;20046;-78
2023/01/26 10:25:50;;;;;;;34.63;13.38;;;1.80;99.90;;;0.27;97.50;101810.59;4956676;28;20153;-77
2023/01/26 10:28:31;;;;;;;41.72;14.70;;;1.90;99.90;;;0.30;97.34;101809.75;4925184;28;20323;-77
2023/01/26 10:30:57;;;;;;;33.30;14.15;;;1.80;99.90;;;0.30;97.02;101794.22;4956989;28;21166;-79
2023/01/26 10:33:36;;;;;;;36.38;14.30;;;1.90;99.90;;;0.32;96.87;101792.50;4975444;28;20055;-77
2023/01/26 10:36:14;;;;;;;38.53;14.70;;;1.90;99.90;;;0.34;96.91;101785.63;4953896;28;20051;-78
2023/01/26 10:38:52;;;;;;;40.03;15.60;;;1.90;99.90;;;0.34;96.66;101786.50;4959505;28;20037;-78
2023/01/26 10:41:31;;;;;;;35.30;13.45;;;1.90;99.90;;;0.28;96.50;101782.97;4962560;28;20051;-78
2023/01/26 10:44:19;;;;;;;32.53;13.90;;;1.90;99.90;;;0.28;96.74;101781.28;4967286;28;20069;-79
2023/01/26 10:47:03;;;;;;;29.83;12.35;;;1.90;99.90;;;0.28;96.19;101777.78;4963671;28;20108;-78
2023/01/26 10:49:32;;;;;;;32.17;12.60;;;1.90;99.90;;;0.28;96.53;101777.78;4966920;28;20038;-79
2023/01/26 10:52:21;;;;;;;32.65;12.82;;;1.90;99.90;;;0.32;96.57;101774.38;4957248;28;20034;-78
2023/01/26 10:55:16;;;;;;;27.30;12.10;;;1.90;99.90;;;0.35;96.19;101777.03;4946988;28;20035;-79
2023/01/26 10:57:47;;;;;;;24.13;10.98;;;2.00;99.90;;;0.45;96.18;101786.63;4967718;28;20035;-78
2023/01/26 11:00:25;;;;;;;26.85;11.40;;;2.00;99.90;;;0.47;96.11;101790.13;4929312;28;20074;-78
2023/01/26 11:03:11;;;;;;;30.10;12.38;;;2.00;99.90;;;0.53;95.54;101784.16;4927625;28;20043;-78